Terminal Aerodrome Forecast
Issued by NWS

Home | Current Version | Previous Version | Text Only | Print | Product List | Glossary On
Versions: 1 2 3 4 5 6 7 8 9 10 11 12 13 14 15 16 17 18 19 20 21 22 23 24 25 26 27 28 29
000
FTUS43 KDLH 232300
TAFHIB
TAF
KHIB 232321Z 2400/2424 16005KT P6SM BKN250
     FM240900 17008KT P6SM VCSH SCT045 OVC100
     FM241200 18009KT P6SM VCSH OVC050
     FM241500 18011KT P6SM VCSH OVC025=

USA.gov is the U.S. government's official web portal to all federal, state and local government web resources and services.